Terminal Aerodrome Forecast
Issued by NWS Brownsville, TX

Home | Current Version | Previous Version | Text Only | Print | Product List | Glossary On
Versions: 1 2 3 4 5 6 7 8 9 10 11 12 13 14 15 16 17 18
000
FTUS44 KBRO 011736
TAFBRO
TAF
KBRO 011736Z 0118/0218 16015KT P6SM SCT025 BKN040
      TEMPO 0118/0121 20010KT BKN015
     FM012100 36012KT P6SM BKN040
     FM020000 36013G18KT P6SM SCT025=

USA.gov is the U.S. government's official web portal to all federal, state and local government web resources and services.